Lake Saint Louis, Missouri
Current Conditions -  °F | °C
As of 8:54 PM on Wednesday 26 Nov 2014 (Local Time) from KSUS Reporting Station
Haze Haze  
Wind Chill: 29°   Ceiling: 1200
Heat Index: 35°   Visibility: 2mi
Dew Point: 32°   Wind: 8mph
Humidity: 89%   Direction: 280°W
Pressure: 30.09"   Gusts: NA
Location:  38.8°N, 90.79°W
Report Text: KSUS 270254Z 28007KT 2SM BR OVC012 02/00 A3009 RMK AO2 DZE38 SLP199 P0000 60003 T00170000 53022
Loading
Personal Weather Stations






























Interactive Weather Map New forecast layout! Learn more

10-Day Weather Forecast

Advertisements
Track Severe Weather on mobile